Time;durP1;ratioP1;P1;durP2;ratioP2;P2;SDS_P1;SDS_P2;PMS_P1;PMS_P2;Temp;Humidity;BMP_temperature;BMP_pressure;BME280_temperature;BME280_humidity;BME280_pressure;Samples;Min_cycle;Max_cycle;Signal;HPM_P1;HPM_P2
2023/01/01 00:01:24;;;;;;;234.37;117.73;;;;;;;9.97;100.00;100276.03;5028167;28;20453;-55
2023/01/01 00:03:52;;;;;;;263.60;142.90;;;;;;;9.82;100.00;100271.13;5010499;28;20451;-56
2023/01/01 00:06:19;;;;;;;344.23;170.60;;;;;;;9.77;100.00;100273.91;5021253;28;20491;-55
2023/01/01 00:08:46;;;;;;;372.60;179.67;;;;;;;10.06;100.00;100270.47;5034488;28;20472;-53
2023/01/01 00:11:13;;;;;;;308.93;147.17;;;;;;;9.74;100.00;100276.63;5025901;28;20496;-55
2023/01/01 00:13:41;;;;;;;166.67;82.23;;;;;;;9.53;100.00;100270.06;5027925;28;20447;-55
2023/01/01 00:16:09;;;;;;;112.67;61.13;;;;;;;9.53;100.00;100271.84;5014735;28;20457;-54
2023/01/01 00:18:37;;;;;;;139.73;77.27;;;;;;;9.57;100.00;100278.81;5027927;28;20466;-53
2023/01/01 00:21:06;;;;;;;474.17;267.87;;;;;;;9.54;100.00;100271.81;5022405;28;20558;-54
2023/01/01 00:23:34;;;;;;;351.33;173.50;;;;;;;9.41;100.00;100280.97;5021243;28;20448;-53
2023/01/01 00:26:01;;;;;;;551.63;371.27;;;;;;;9.20;100.00;100290.31;5024916;28;20456;-55
2023/01/01 00:28:27;;;;;;;497.27;298.00;;;;;;;9.49;100.00;100294.94;5027747;28;20456;-55
2023/01/01 00:30:54;;;;;;;243.83;126.47;;;;;;;9.40;100.00;100289.84;5024963;28;21010;-54
2023/01/01 00:33:20;;;;;;;81.50;41.60;;;;;;;9.38;100.00;100278.41;5027982;28;20451;-53
2023/01/01 00:35:46;;;;;;;20.20;15.17;;;;;;;9.30;100.00;100272.41;5014598;28;20453;-55
2023/01/01 00:38:13;;;;;;;38.30;21.63;;;;;;;9.32;100.00;100268.81;5028347;28;20889;-54
2023/01/01 00:40:39;;;;;;;60.80;25.57;;;;;;;9.45;100.00;100266.72;5034080;28;20468;-55
2023/01/01 00:43:06;;;;;;;29.70;16.60;;;;;;;9.35;100.00;100260.78;5020492;28;20448;-55
2023/01/01 00:45:32;;;;;;;32.43;17.47;;;;;;;9.51;100.00;100266.59;5033509;28;20452;-55
2023/01/01 00:47:59;;;;;;;33.63;17.93;;;;;;;9.56;100.00;100261.16;5031703;28;20475;-54
2023/01/01 00:50:25;;;;;;;28.37;15.37;;;;;;;9.59;100.00;100264.59;5014068;28;20500;-55
2023/01/01 00:52:52;;;;;;;21.77;11.60;;;;;;;9.68;100.00;100267.03;5023206;28;20491;-55
2023/01/01 00:55:18;;;;;;;21.23;12.00;;;;;;;9.66;100.00;100263.53;5024798;28;20552;-55
2023/01/01 00:57:44;;;;;;;21.30;14.43;;;;;;;9.84;100.00;100258.66;5027308;28;20509;-55
2023/01/01 01:00:12;;;;;;;20.23;10.70;;;;;;;10.33;100.00;100263.56;5022998;28;20530;-56
2023/01/01 01:02:38;;;;;;;28.10;11.93;;;;;;;10.29;100.00;100252.16;5026629;28;20459;-55
2023/01/01 01:05:05;;;;;;;23.60;10.47;;;;;;;10.28;100.00;100249.53;5023124;28;20502;-56
2023/01/01 01:07:35;;;;;;;16.10;11.57;;;;;;;10.30;100.00;100248.59;5026083;28;20864;-55
2023/01/01 01:10:02;;;;;;;14.37;10.47;;;;;;;10.49;100.00;100250.72;5032977;28;20541;-56
2023/01/01 01:12:28;;;;;;;12.03;9.50;;;;;;;10.55;100.00;100253.19;5020026;28;20458;-55
2023/01/01 01:14:54;;;;;;;17.27;10.60;;;;;;;10.52;100.00;100253.28;5023215;28;21003;-56
2023/01/01 01:17:21;;;;;;;26.37;12.23;;;;;;;10.58;100.00;100253.13;5026710;28;20953;-55
2023/01/01 01:19:47;;;;;;;15.77;9.13;;;;;;;10.84;100.00;100253.22;5023536;28;20508;-55
2023/01/01 01:22:14;;;;;;;15.90;6.70;;;;;;;10.87;100.00;100253.13;5030072;28;20453;-56
2023/01/01 01:24:40;;;;;;;16.93;8.67;;;;;;;11.01;100.00;100244.72;5023952;28;20458;-55
2023/01/01 01:27:06;;;;;;;10.90;8.30;;;;;;;10.98;100.00;100237.72;5019775;28;20493;-55
2023/01/01 01:29:33;;;;;;;5.27;4.87;;;;;;;11.38;100.00;100236.44;5022816;28;20986;-55
2023/01/01 01:31:59;;;;;;;6.20;4.13;;;;;;;11.56;100.00;100243.81;5027039;28;20456;-56
2023/01/01 01:34:26;;;;;;;3.90;3.60;;;;;;;11.72;100.00;100249.47;5022927;28;20452;-55
2023/01/01 01:36:55;;;;;;;6.70;5.13;;;;;;;11.84;100.00;100251.75;5020179;28;20448;-55
2023/01/01 01:39:22;;;;;;;17.27;6.50;;;;;;;11.77;100.00;100249.31;5032920;28;20479;-55
2023/01/01 01:41:49;;;;;;;3.23;2.57;;;;;;;12.00;100.00;100260.09;5019326;28;20478;-56
2023/01/01 01:44:52;;;;;;;3.40;2.50;;;;;;;12.17;100.00;100262.16;5024377;28;20448;-56
2023/01/01 01:47:29;;;;;;;4.43;2.87;;;;;;;12.15;100.00;100262.22;5023329;28;20443;-56
2023/01/01 01:50:14;;;;;;;2.43;2.27;;;;;;;12.20;100.00;100266.50;5019295;28;20981;-56
2023/01/01 01:52:54;;;;;;;8.30;3.90;;;;;;;12.23;100.00;100255.75;5025381;28;20454;-56
2023/01/01 01:55:20;;;;;;;3.67;3.47;;;;;;;12.22;100.00;100262.00;5022774;28;20458;-56
2023/01/01 01:57:47;;;;;;;4.63;3.83;;;;;;;12.35;100.00;100255.31;5025643;28;20471;-56
2023/01/01 02:00:14;;;;;;;3.07;2.10;;;;;;;12.41;100.00;100258.59;5022237;28;20482;-57
2023/01/01 02:02:55;;;;;;;7.23;2.03;;;;;;;12.46;100.00;100271.75;5019514;28;20825;-56
2023/01/01 02:05:23;;;;;;;3.87;2.83;;;;;;;12.53;100.00;100275.09;5020908;28;20444;-56
2023/01/01 02:07:51;;;;;;;2.00;1.70;;;;;;;12.60;100.00;100280.13;5031705;28;20455;-57
2023/01/01 02:10:18;;;;;;;1.97;1.37;;;;;;;12.48;100.00;100279.72;5019790;28;20489;-56
2023/01/01 02:12:44;;;;;;;4.23;2.63;;;;;;;12.40;100.00;100275.53;5026001;28;20452;-57
2023/01/01 02:15:11;;;;;;;4.67;4.23;;;;;;;12.11;100.00;100273.91;5025196;28;20459;-56
2023/01/01 02:17:50;;;;;;;7.90;1.83;;;;;;;12.43;100.00;100274.53;5019073;28;20542;-56
2023/01/01 02:20:32;;;;;;;4.30;1.93;;;;;;;12.53;100.00;100280.41;5019626;28;20439;-56
2023/01/01 02:23:14;;;;;;;5.13;2.17;;;;;;;12.69;100.00;100284.25;5022489;28;20480;-56
2023/01/01 02:25:51;;;;;;;2.13;2.03;;;;;;;12.67;100.00;100283.44;5018609;28;20960;-56
2023/01/01 02:28:35;;;;;;;2.10;1.73;;;;;;;12.80;100.00;100281.19;5019092;28;20475;-56
2023/01/01 02:31:03;;;;;;;6.47;1.87;;;;;;;12.80;100.00;100283.84;5032477;28;20485;-57
2023/01/01 02:33:30;;;;;;;2.77;1.90;;;;;;;12.77;100.00;100287.50;5019027;28;20937;-57
2023/01/01 02:36:00;;;;;;;1.60;1.33;;;;;;;12.74;100.00;100287.59;5021768;28;20463;-55
2023/01/01 02:38:30;;;;;;;1.73;1.63;;;;;;;12.85;100.00;100287.22;5025378;28;20522;-56
2023/01/01 02:41:03;;;;;;;1.43;1.10;;;;;;;12.93;100.00;100286.00;5024254;28;20444;-55
2023/01/01 02:43:30;;;;;;;2.10;1.73;;;;;;;12.89;100.00;100295.06;5019170;28;20451;-57
2023/01/01 02:45:57;;;;;;;1.67;1.47;;;;;;;12.83;100.00;100297.06;5044393;28;20446;-55
2023/01/01 02:48:50;;;;;;;0.60;0.60;;;;;;;12.94;100.00;100301.06;5027013;28;20448;-56
2023/01/01 02:51:26;;;;;;;3.10;1.00;;;;;;;12.87;100.00;100288.88;5025705;28;20495;-56
2023/01/01 02:54:08;;;;;;;1.33;0.60;;;;;;;13.05;99.82;100290.00;5025457;28;20443;-56
2023/01/01 02:56:41;;;;;;;1.67;1.57;;;;;;;12.95;99.74;100300.16;5020005;28;20819;-56
2023/01/01 03:02:40;;;;;;;1.20;0.90;;;;;;;13.02;100.00;100306.13;5024467;28;20926;-56
2023/01/01 03:05:29;;;;;;;0.67;0.67;;;;;;;13.07;100.00;100309.47;5027014;28;20455;-56
2023/01/01 03:08:12;;;;;;;1.37;1.27;;;;;;;13.22;99.15;100295.56;5027855;28;20443;-56
2023/01/01 03:10:49;;;;;;;9.30;0.90;;;;;;;13.01;99.54;100291.03;5022023;28;20500;-57
2023/01/01 03:13:43;;;;;;;1.87;0.97;;;;;;;13.03;99.50;100298.06;5025603;28;20463;-57
2023/01/01 03:16:14;;;;;;;0.97;0.93;;;;;;;13.14;99.43;100302.97;5000857;28;20799;-55
2023/01/01 03:19:09;;;;;;;2.73;1.40;;;;;;;13.03;99.72;100299.88;5022381;28;20468;-57
2023/01/01 03:21:50;;;;;;;6.37;1.80;;;;;;;13.01;99.63;100312.38;5023830;28;20456;-56
2023/01/01 03:24:26;;;;;;;0.83;0.83;;;;;;;13.07;99.61;100319.28;5023645;28;20450;-57
2023/01/01 03:26:58;;;;;;;1.20;0.80;;;;;;;12.92;100.00;100310.94;5026400;28;20934;-57
2023/01/01 03:29:28;;;;;;;2.27;1.03;;;;;;;12.95;98.99;100312.63;5025706;28;20551;-55
2023/01/01 03:31:58;;;;;;;0.70;0.67;;;;;;;13.04;99.68;100310.47;5022010;28;20494;-56
2023/01/01 03:34:38;;;;;;;10.70;1.13;;;;;;;13.00;99.71;100314.16;5025104;28;20455;-56
2023/01/01 03:37:14;;;;;;;1.30;0.87;;;;;;;12.98;99.34;100307.16;5033509;28;20964;-57
2023/01/01 03:39:47;;;;;;;5.13;1.57;;;;;;;13.08;99.30;100318.38;5035293;28;20479;-56
2023/01/01 03:42:25;;;;;;;0.70;0.60;;;;;;;13.00;99.58;100321.31;5035141;28;20452;-56
2023/01/01 03:45:00;;;;;;;17.90;1.47;;;;;;;13.07;99.36;100321.97;5024874;28;20444;-56
2023/01/01 03:47:28;;;;;;;0.80;0.77;;;;;;;12.91;99.18;100317.22;5035490;28;20478;-57
2023/01/01 03:49:56;;;;;;;8.90;0.90;;;;;;;13.01;99.43;100320.38;5022000;28;20833;-56
2023/01/01 03:52:31;;;;;;;2.20;1.80;;;;;;;12.92;99.84;100318.09;5028838;28;20473;-56
2023/01/01 03:55:03;;;;;;;0.73;0.73;;;;;;;12.76;100.00;100309.78;5021253;28;21276;-56
2023/01/01 03:57:36;;;;;;;4.63;1.80;;;;;;;12.88;99.77;100324.44;5022239;28;20451;-57
2023/01/01 04:00:10;;;;;;;0.60;0.60;;;;;;;12.99;99.40;100319.56;5027216;28;20476;-57
2023/01/01 04:02:42;;;;;;;3.73;1.37;;;;;;;13.13;98.74;100305.69;5028818;28;20443;-57
2023/01/01 04:05:09;;;;;;;0.90;0.63;;;;;;;13.19;98.46;100311.72;5025192;28;20447;-56
2023/01/01 04:07:37;;;;;;;2.93;0.93;;;;;;;13.19;98.50;100310.84;5027246;28;20474;-57
2023/01/01 04:10:15;;;;;;;1.07;0.80;;;;;;;13.31;97.62;100318.38;5023970;28;20883;-56
2023/01/01 04:12:48;;;;;;;0.70;0.60;;;;;;;13.18;97.98;100328.66;5028109;28;20448;-56
2023/01/01 04:15:17;;;;;;;1.73;1.07;;;;;;;13.25;97.52;100330.16;5028304;28;20455;-56
2023/01/01 04:17:44;;;;;;;8.67;1.30;;;;;;;13.14;97.88;100331.47;5028161;28;20457;-57
2023/01/01 04:20:11;;;;;;;0.87;0.87;;;;;;;13.34;96.89;100332.47;5028108;28;20471;-56
2023/01/01 04:22:38;;;;;;;0.93;0.77;;;;;;;13.23;97.84;100333.81;5022063;28;20452;-57
2023/01/01 04:25:05;;;;;;;10.80;0.50;;;;;;;13.14;98.17;100326.13;5033296;28;20434;-57
2023/01/01 04:27:31;;;;;;;1.23;1.10;;;;;;;13.23;97.70;100332.00;5022080;28;20459;-57
2023/01/01 04:30:03;;;;;;;1.30;1.00;;;;;;;13.05;97.90;100330.03;5021596;28;20495;-56
2023/01/01 04:32:30;;;;;;;3.80;2.17;;;;;;;12.93;98.38;100330.50;5026201;28;21033;-56
2023/01/01 04:34:56;;;;;;;1.27;1.13;;;;;;;12.82;99.09;100336.22;5028144;28;20430;-56
2023/01/01 04:37:22;;;;;;;1.70;1.03;;;;;;;12.77;99.07;100329.31;5022627;28;20451;-57
2023/01/01 04:39:49;;;;;;;4.40;1.23;;;;;;;12.66;99.28;100337.72;5020946;28;20480;-56
2023/01/01 04:42:15;;;;;;;13.30;2.27;;;;;;;12.60;99.93;100338.78;5025699;28;20935;-56
2023/01/01 04:44:41;;;;;;;2.07;1.03;;;;;;;12.45;100.00;100347.34;5030415;28;20824;-56
2023/01/01 04:47:08;;;;;;;0.63;0.50;;;;;;;12.32;100.00;100346.91;5025155;28;20449;-56
2023/01/01 04:49:35;;;;;;;1.00;0.60;;;;;;;12.35;100.00;100351.28;5027669;28;20471;-56
2023/01/01 04:52:02;;;;;;;2.50;1.40;;;;;;;11.99;100.00;100340.94;5021186;28;20495;-56
2023/01/01 04:54:28;;;;;;;1.60;0.50;;;;;;;11.63;100.00;100342.97;5027576;28;20458;-56
2023/01/01 04:56:54;;;;;;;2.23;2.03;;;;;;;11.46;100.00;100342.63;5023723;28;20525;-56
2023/01/01 04:59:21;;;;;;;2.97;1.23;;;;;;;11.16;100.00;100341.78;5020579;28;20479;-56
2023/01/01 05:01:47;;;;;;;0.50;0.50;;;;;;;10.98;100.00;100353.88;5024319;28;20543;-56
2023/01/01 05:04:16;;;;;;;0.83;0.83;;;;;;;10.89;100.00;100357.66;5027988;28;20487;-55
2023/01/01 05:06:42;;;;;;;1.23;1.17;;;;;;;11.16;100.00;100358.63;5026559;28;20452;-55
2023/01/01 05:09:10;;;;;;;4.73;2.60;;;;;;;11.12;100.00;100357.00;5015489;28;20472;-56
2023/01/01 05:11:37;;;;;;;0.80;0.80;;;;;;;11.15;100.00;100359.56;5023588;28;20488;-56
2023/01/01 05:14:04;;;;;;;1.00;0.70;;;;;;;11.08;100.00;100365.09;5026912;28;20865;-55
2023/01/01 05:16:34;;;;;;;10.07;1.60;;;;;;;11.01;100.00;100360.88;5024050;28;20455;-56
2023/01/01 05:19:01;;;;;;;0.83;0.83;;;;;;;10.86;100.00;100371.03;5020402;28;20507;-56
2023/01/01 05:21:33;;;;;;;1.43;1.33;;;;;;;10.64;100.00;100367.22;5022453;28;20901;-56
2023/01/01 05:24:02;;;;;;;2.40;1.73;;;;;;;10.51;100.00;100368.47;5029764;28;20994;-56
2023/01/01 05:26:32;;;;;;;3.60;0.97;;;;;;;10.29;100.00;100368.19;5021265;28;20456;-54
2023/01/01 05:29:00;;;;;;;1.43;1.10;;;;;;;10.36;100.00;100375.06;5027023;28;20496;-55
2023/01/01 05:31:29;;;;;;;2.53;1.17;;;;;;;10.12;100.00;100379.19;5014472;28;20501;-51
2023/01/01 05:33:56;;;;;;;1.00;0.90;;;;;;;10.00;100.00;100372.41;5021714;28;20453;-51
2023/01/01 05:36:26;;;;;;;0.93;0.93;;;;;;;9.97;100.00;100372.47;5026829;28;20555;-51
2023/01/01 05:38:53;;;;;;;1.23;1.13;;;;;;;10.00;100.00;100364.44;5032941;28;21072;-50
2023/01/01 05:41:21;;;;;;;5.90;1.47;;;;;;;10.66;100.00;100368.91;5019002;28;20448;-52
2023/01/01 05:43:48;;;;;;;4.83;1.00;;;;;;;10.78;100.00;100367.72;5020758;28;20547;-51
2023/01/01 05:46:17;;;;;;;1.20;0.97;;;;;;;10.81;100.00;100374.72;5033086;28;20443;-51
2023/01/01 05:48:44;;;;;;;0.80;0.80;;;;;;;10.93;100.00;100372.59;5024855;28;21016;-51
2023/01/01 05:51:13;;;;;;;9.83;0.80;;;;;;;10.80;100.00;100373.84;5025802;28;20479;-50
2023/01/01 05:53:41;;;;;;;1.70;1.00;;;;;;;10.58;100.00;100380.69;5022887;28;20452;-50
2023/01/01 05:56:07;;;;;;;7.60;1.00;;;;;;;10.84;100.00;100378.19;5029791;28;20488;-49
2023/01/01 05:58:34;;;;;;;0.60;0.53;;;;;;;10.78;100.00;100382.78;5023066;28;20486;-49
2023/01/01 06:01:16;;;;;;;2.60;1.37;;;;;;;10.55;100.00;100386.06;5019746;28;20441;-49
2023/01/01 06:03:43;;;;;;;1.57;1.13;;;;;;;10.44;100.00;100390.81;5025471;28;20448;-49
2023/01/01 06:06:12;;;;;;;1.23;0.57;;;;;;;10.55;100.00;100402.94;5018816;28;20461;-50
2023/01/01 06:08:39;;;;;;;2.00;0.50;;;;;;;10.60;100.00;100397.47;5023386;28;20450;-50
2023/01/01 06:11:09;;;;;;;1.20;0.70;;;;;;;10.68;100.00;100395.47;5019635;28;20491;-49
2023/01/01 06:13:36;;;;;;;0.70;0.60;;;;;;;10.64;100.00;100397.34;5028970;28;20837;-50
2023/01/01 06:16:03;;;;;;;1.00;0.87;;;;;;;10.63;100.00;100400.03;5017982;28;20444;-50
2023/01/01 06:18:32;;;;;;;1.07;0.97;;;;;;;10.59;100.00;100409.03;5017704;28;20882;-49
2023/01/01 06:21:13;;;;;;;3.50;1.13;;;;;;;10.63;100.00;100414.19;5022529;28;20436;-49
2023/01/01 06:23:41;;;;;;;9.20;0.67;;;;;;;10.91;100.00;100416.09;5028808;28;20462;-49
2023/01/01 06:26:20;;;;;;;1.47;1.13;;;;;;;10.73;100.00;100411.31;5018782;28;20453;-49
2023/01/01 06:28:47;;;;;;;1.13;1.03;;;;;;;10.58;100.00;100417.91;5030181;28;20455;-49
2023/01/01 06:31:16;;;;;;;1.07;1.03;;;;;;;10.41;100.00;100436.06;5021212;28;20492;-52
2023/01/01 06:33:43;;;;;;;1.40;0.87;;;;;;;10.37;100.00;100429.97;5030331;28;20506;-49
2023/01/01 06:36:12;;;;;;;2.53;2.10;;;;;;;10.64;100.00;100439.00;5031381;28;20465;-50
2023/01/01 06:38:41;;;;;;;1.90;1.70;;;;;;;10.20;100.00;100445.41;5030306;28;20491;-50
2023/01/01 06:41:12;;;;;;;0.50;0.50;;;;;;;10.29;100.00;100439.94;5026681;28;20448;-51
2023/01/01 06:43:39;;;;;;;1.73;0.73;;;;;;;10.48;100.00;100433.22;5025338;28;20817;-50
2023/01/01 06:46:07;;;;;;;3.20;1.07;;;;;;;10.39;100.00;100447.59;5042374;28;20450;-52
2023/01/01 06:48:35;;;;;;;0.97;0.70;;;;;;;10.27;100.00;100442.59;5030771;28;20495;-50
2023/01/01 06:51:15;;;;;;;1.30;0.93;;;;;;;10.06;100.00;100433.34;5019054;28;20499;-49
2023/01/01 06:53:42;;;;;;;5.20;1.27;;;;;;;9.90;100.00;100452.34;5025501;28;20451;-50
2023/01/01 06:56:10;;;;;;;1.37;1.13;;;;;;;10.08;100.00;100447.47;5018917;28;20452;-51
2023/01/01 06:58:36;;;;;;;5.33;1.30;;;;;;;9.91;100.00;100448.78;5024369;28;20486;-50
2023/01/01 07:01:04;;;;;;;2.30;0.87;;;;;;;9.87;100.00;100437.38;5018849;28;20505;-49
2023/01/01 07:03:35;;;;;;;1.00;0.60;;;;;;;10.05;100.00;100438.69;5031834;28;20523;-50
2023/01/01 07:06:02;;;;;;;0.60;0.50;;;;;;;10.12;100.00;100434.09;5015194;28;20556;-50
2023/01/01 07:08:29;;;;;;;0.63;0.63;;;;;;;10.12;100.00;100447.38;5024287;28;20536;-51
2023/01/01 07:10:56;;;;;;;0.60;0.50;;;;;;;10.02;100.00;100444.09;5015919;28;20475;-49
2023/01/01 07:13:27;;;;;;;1.40;0.93;;;;;;;10.06;100.00;100456.38;5023912;28;20444;-50
2023/01/01 07:15:56;;;;;;;2.43;0.93;;;;;;;10.11;100.00;100459.78;5026749;28;20552;-50
2023/01/01 07:18:26;;;;;;;1.43;1.33;;;;;;;9.96;100.00;100473.44;5019781;28;20449;-49
2023/01/01 07:20:55;;;;;;;0.60;0.60;;;;;;;9.77;100.00;100479.16;5006953;28;20872;-50
2023/01/01 07:23:22;;;;;;;0.57;0.57;;;;;;;9.93;100.00;100489.44;5018964;28;20452;-50
2023/01/01 07:25:52;;;;;;;0.53;0.50;;;;;;;10.06;100.00;100489.13;5018689;28;20452;-51
2023/01/01 07:28:20;;;;;;;0.80;0.80;;;;;;;10.15;100.00;100495.13;5018688;28;20510;-50
2023/01/01 07:30:47;;;;;;;0.90;0.90;;;;;;;10.07;100.00;100500.63;5024780;28;20453;-49
2023/01/01 07:33:17;;;;;;;4.23;1.13;;;;;;;10.20;100.00;100506.53;5019326;28;20490;-49
2023/01/01 07:35:48;;;;;;;1.03;0.50;;;;;;;10.04;100.00;100513.97;5024175;28;20456;-50
2023/01/01 07:38:14;;;;;;;1.63;1.00;;;;;;;10.06;100.00;100521.00;5027440;28;20443;-51
2023/01/01 07:40:41;;;;;;;13.40;2.40;;;;;;;9.99;100.00;100513.19;5021854;28;20475;-50
2023/01/01 07:43:09;;;;;;;0.67;0.67;;;;;;;9.97;100.00;100515.00;5017419;28;20448;-50
2023/01/01 07:45:35;;;;;;;10.40;1.40;;;;;;;10.03;100.00;100515.75;5024547;28;21031;-51
2023/01/01 07:48:02;;;;;;;6.40;1.33;;;;;;;10.09;100.00;100510.28;5022935;28;20449;-50
2023/01/01 07:50:31;;;;;;;2.40;1.50;;;;;;;9.96;100.00;100503.50;5024895;28;20506;-50
2023/01/01 07:53:00;;;;;;;1.30;1.00;;;;;;;9.96;100.00;100510.59;5020808;28;20495;-50
2023/01/01 07:55:27;;;;;;;1.70;1.10;;;;;;;10.02;100.00;100513.13;5025965;28;20452;-51
2023/01/01 07:57:55;;;;;;;3.37;2.90;;;;;;;10.06;100.00;100513.03;5024077;28;20483;-51
2023/01/01 08:00:24;;;;;;;0.93;0.93;;;;;;;9.95;100.00;100514.16;5024318;28;20462;-50
2023/01/01 08:02:54;;;;;;;3.10;1.47;;;;;;;9.84;100.00;100518.84;5022539;28;20447;-50
2023/01/01 08:05:20;;;;;;;1.40;1.30;;;;;;;9.74;100.00;100508.44;5024738;28;20481;-50
2023/01/01 08:07:53;;;;;;;1.10;1.00;;;;;;;9.87;100.00;100516.09;5024999;28;20445;-50
2023/01/01 08:10:24;;;;;;;2.20;1.80;;;;;;;9.81;100.00;100514.47;5027721;28;20471;-51
2023/01/01 08:12:50;;;;;;;4.87;2.93;;;;;;;10.09;100.00;100510.28;5022832;28;20489;-49
2023/01/01 08:15:17;;;;;;;1.43;1.23;;;;;;;10.34;100.00;100513.28;5021569;28;20448;-50
2023/01/01 08:17:44;;;;;;;3.13;2.30;;;;;;;10.61;100.00;100509.06;5030535;28;20487;-50
2023/01/01 08:20:13;;;;;;;2.97;0.80;;;;;;;10.89;100.00;100509.22;5022119;28;20475;-50
2023/01/01 08:22:39;;;;;;;1.57;1.10;;;;;;;11.17;100.00;100514.69;5022318;28;20587;-50
2023/01/01 08:25:07;;;;;;;1.13;1.13;;;;;;;11.21;100.00;100519.00;5029314;28;20447;-49
2023/01/01 08:27:35;;;;;;;5.13;0.60;;;;;;;11.32;100.00;100513.38;5020290;28;20456;-50
2023/01/01 08:30:02;;;;;;;4.20;1.57;;;;;;;11.42;100.00;100516.66;5017592;28;20512;-49
2023/01/01 08:32:29;;;;;;;12.33;0.90;;;;;;;11.55;100.00;100518.06;5030365;28;20487;-48
2023/01/01 08:34:55;;;;;;;1.10;1.03;;;;;;;11.71;100.00;100534.47;5024949;28;20444;-48
2023/01/01 08:37:22;;;;;;;0.60;0.60;;;;;;;11.86;100.00;100531.38;5029677;28;20886;-48
2023/01/01 08:39:52;;;;;;;1.93;1.00;;;;;;;11.94;100.00;100529.38;5027191;28;20566;-48
2023/01/01 08:42:18;;;;;;;8.27;1.27;;;;;;;12.15;100.00;100538.47;5020236;28;20441;-48
2023/01/01 08:44:46;;;;;;;9.43;1.40;;;;;;;12.26;100.00;100536.34;5027464;28;20539;-50
2023/01/01 08:47:21;;;;;;;0.50;0.50;;;;;;;12.46;100.00;100535.69;5020255;28;20543;-49
2023/01/01 08:49:48;;;;;;;0.70;0.50;;;;;;;12.53;100.00;100536.38;5016844;28;20454;-49
2023/01/01 08:52:15;;;;;;;32.77;1.53;;;;;;;12.71;100.00;100533.09;5027118;28;20534;-49
2023/01/01 08:54:42;;;;;;;1.17;1.00;;;;;;;12.75;100.00;100556.13;5024724;28;20456;-49
2023/01/01 08:57:10;;;;;;;0.80;0.77;;;;;;;12.84;100.00;100554.91;4991058;28;20447;-50
2023/01/01 08:59:36;;;;;;;7.10;0.73;;;;;;;12.91;100.00;100565.34;5029783;28;21212;-49
2023/01/01 09:02:03;;;;;;;1.03;0.70;;;;;;;12.91;99.85;100572.47;5029691;28;20444;-50
2023/01/01 09:04:30;;;;;;;4.83;0.67;;;;;;;12.87;99.94;100577.03;5025281;28;20448;-50
2023/01/01 09:06:57;;;;;;;0.90;0.87;;;;;;;12.94;99.56;100583.03;5019645;28;21017;-51
2023/01/01 09:09:23;;;;;;;4.30;1.13;;;;;;;13.13;100.00;100575.25;5028179;28;20494;-51
2023/01/01 09:12:02;;;;;;;0.80;0.67;;;;;;;12.98;99.53;100571.31;5017836;28;20795;-51
2023/01/01 09:14:29;;;;;;;0.93;0.93;;;;;;;13.18;98.36;100582.25;5027050;28;20858;-51
2023/01/01 09:16:57;;;;;;;1.67;0.90;;;;;;;13.26;98.34;100579.28;5020331;28;20831;-51
2023/01/01 09:19:24;;;;;;;1.50;1.40;;;;;;;13.22;99.29;100572.31;5026681;28;20465;-51
2023/01/01 09:21:51;;;;;;;1.10;0.80;;;;;;;13.44;97.97;100567.09;5026730;28;20460;-51
2023/01/01 09:24:17;;;;;;;5.80;1.37;;;;;;;13.57;97.70;100576.44;5024816;28;20511;-52
2023/01/01 09:26:46;;;;;;;0.80;0.77;;;;;;;13.48;97.83;100572.28;5024411;28;21032;-51
2023/01/01 09:29:17;;;;;;;7.27;0.70;;;;;;;13.51;98.01;100571.28;5029047;28;20505;-50
2023/01/01 09:31:44;;;;;;;3.90;0.87;;;;;;;13.55;97.67;100571.09;5025954;28;20480;-50
2023/01/01 09:34:11;;;;;;;11.60;1.13;;;;;;;13.53;97.56;100561.41;5025113;28;20480;-50
2023/01/01 09:36:38;;;;;;;5.93;1.83;;;;;;;13.67;97.35;100571.59;5018606;28;20476;-51
2023/01/01 09:39:05;;;;;;;0.50;0.50;;;;;;;13.75;96.48;100583.75;5032597;28;20476;-51
2023/01/01 09:41:54;;;;;;;1.63;0.87;;;;;;;13.67;96.63;100575.13;5019782;28;20535;-50
2023/01/01 09:44:43;;;;;;;2.77;1.30;;;;;;;13.81;96.81;100571.94;5024091;28;20444;-52
2023/01/01 09:47:23;;;;;;;0.90;0.60;;;;;;;13.89;96.31;100561.88;5021977;28;20451;-50
2023/01/01 09:49:55;;;;;;;1.63;1.10;;;;;;;13.92;96.28;100573.31;5009251;28;20476;-50
2023/01/01 09:52:27;;;;;;;2.57;1.57;;;;;;;14.22;95.66;100573.91;5024620;28;20483;-51
2023/01/01 09:54:59;;;;;;;1.40;0.90;;;;;;;14.15;94.85;100576.91;5015190;28;20453;-50
2023/01/01 09:57:30;;;;;;;2.13;1.03;;;;;;;14.15;95.07;100574.25;5026696;28;20455;-51
2023/01/01 09:59:59;;;;;;;0.60;0.50;;;;;;;14.22;95.40;100576.59;5025714;28;20850;-51
2023/01/01 10:02:34;;;;;;;1.07;0.97;;;;;;;14.33;95.37;100581.53;5021400;28;20507;-51
2023/01/01 10:05:25;;;;;;;1.17;1.07;;;;;;;14.53;93.99;100578.13;5022520;28;20506;-51
2023/01/01 10:08:04;;;;;;;0.43;0.30;;;;;;;14.50;94.53;100580.88;5031583;28;20478;-52
2023/01/01 10:10:39;;;;;;;2.57;1.50;;;;;;;14.64;92.82;100585.69;5019789;28;20995;-52
2023/01/01 10:13:26;;;;;;;6.83;0.70;;;;;;;14.75;93.13;100580.75;5009829;28;20490;-51
2023/01/01 10:15:58;;;;;;;1.93;1.70;;;;;;;14.73;93.17;100586.19;5025034;28;20870;-53
2023/01/01 10:18:36;;;;;;;1.50;0.70;;;;;;;14.67;92.70;100594.47;5016972;28;20503;-52
2023/01/01 10:21:09;;;;;;;1.47;1.07;;;;;;;14.72;92.38;100587.13;5021336;28;20465;-52
2023/01/01 10:23:50;;;;;;;0.83;0.60;;;;;;;14.68;91.81;100579.28;5021760;28;20950;-50
2023/01/01 10:26:20;;;;;;;2.60;1.30;;;;;;;14.64;92.68;100578.53;5017081;28;20491;-50
2023/01/01 10:29:05;;;;;;;3.50;1.23;;;;;;;14.74;92.38;100582.56;5025667;28;20482;-50
2023/01/01 10:31:40;;;;;;;0.97;0.80;;;;;;;14.72;92.73;100581.78;5025364;28;20424;-51
2023/01/01 10:34:12;;;;;;;2.50;0.90;;;;;;;14.90;92.32;100569.41;5024346;28;20466;-50
2023/01/01 10:36:38;;;;;;;11.80;1.40;;;;;;;14.98;91.85;100577.16;5025737;28;20455;-49
2023/01/01 10:39:05;;;;;;;2.43;1.00;;;;;;;14.78;91.72;100570.81;5022924;28;20479;-50
2023/01/01 10:41:31;;;;;;;2.00;1.40;;;;;;;14.76;92.12;100577.16;5025459;28;20464;-50
2023/01/01 10:43:58;;;;;;;1.23;1.13;;;;;;;14.75;92.32;100565.59;5024404;28;20452;-50
2023/01/01 10:46:25;;;;;;;2.47;1.03;;;;;;;14.76;92.88;100577.16;5027845;28;21034;-50
2023/01/01 10:49:05;;;;;;;1.00;0.93;;;;;;;14.89;92.12;100577.53;5022700;28;20507;-50
2023/01/01 10:51:36;;;;;;;0.70;0.70;;;;;;;14.92;91.83;100580.94;5021158;28;20895;-50
2023/01/01 10:54:02;;;;;;;3.03;1.43;;;;;;;15.06;91.48;100583.91;5031030;28;20539;-50
2023/01/01 10:56:39;;;;;;;2.93;1.03;;;;;;;14.95;91.59;100585.31;5027445;28;20453;-49
2023/01/01 10:59:52;;;;;;;8.83;1.30;;;;;;;14.97;91.45;100570.91;5030307;28;20901;-49
2023/01/01 11:02:21;;;;;;;0.70;0.53;;;;;;;14.94;91.45;100557.69;5017419;28;20449;-49
2023/01/01 11:04:49;;;;;;;2.10;1.17;;;;;;;15.08;91.32;100557.09;5022106;28;20456;-49
2023/01/01 11:07:23;;;;;;;6.33;1.20;;;;;;;14.94;91.35;100556.78;5019820;28;20530;-49
2023/01/01 11:09:50;;;;;;;0.97;0.67;;;;;;;14.93;91.95;100558.56;5024344;28;21015;-50
2023/01/01 11:12:33;;;;;;;14.03;1.37;;;;;;;15.10;91.40;100563.25;5019886;28;20553;-50
2023/01/01 11:15:23;;;;;;;6.93;1.43;;;;;;;15.18;91.00;100558.41;5014179;28;20445;-50
2023/01/01 11:17:49;;;;;;;1.87;1.47;;;;;;;15.19;90.84;100557.47;5024424;28;20420;-50
2023/01/01 11:20:19;;;;;;;1.60;0.83;;;;;;;15.18;90.78;100550.38;5025097;28;20967;-50
2023/01/01 11:22:51;;;;;;;3.00;1.23;;;;;;;15.15;90.79;100549.66;5023504;28;20426;-50
2023/01/01 11:25:20;;;;;;;3.10;1.97;;;;;;;15.27;89.98;100546.44;5022210;28;20598;-50
2023/01/01 11:27:48;;;;;;;0.60;0.50;;;;;;;15.15;90.69;100544.28;5026137;28;20938;-52
2023/01/01 11:30:23;;;;;;;2.00;1.90;;;;;;;15.08;91.00;100535.66;5028843;28;20491;-50
2023/01/01 11:32:56;;;;;;;3.47;1.03;;;;;;;15.19;89.99;100517.31;5027034;28;20465;-50
2023/01/01 11:35:26;;;;;;;1.17;1.07;;;;;;;15.32;90.40;100520.31;5022627;28;20428;-53
2023/01/01 11:37:55;;;;;;;1.10;1.00;;;;;;;15.38;90.13;100514.69;5034643;28;20546;-54